メインページ
METAR-TAF:

METAR-TAF

空港 :

モンバサ, ケニヤ

緯度: 04-02S, 経度: 039-37E, 海抜: 57m

現時点の気象観測

当レポートは1時間19分前の21:00(UTC)に作成
南東の風 4kt
気温 27°C
湿度 89%
気圧 1014 hPa
視程10km以上
高度2300ftの雲は散在している

METAR: HKMO 162100Z 14004KT 9999 SCT023 27/25 Q1014 NOSIG

時間: 01:19 (22:19 UTC)

予報

当レポートは23時間19分前の23:00(UTC)に作成
予報は16日の 00時(UTC)から 17日の 06時(UTC)まで有効
西/南西の風 5kt
視程10km以上
高度2000ftの雲はほとんどない
16日の 09時(UTC)から 16日の 15時(UTC)まで徐々に
南/南東の風 10kt
高度2500ftの雲はほとんどない
16日の 18時(UTC)から 16日の 21時(UTC)まで徐々に
の風 5kt
高度2200ftの雲はほとんどない
17日の 00時(UTC)から 17日の 06時(UTC)まで徐々に
西/南西の風 5kt
高度1900ftの雲はほとんどない

TAF: HKMO 152300Z 1600/1706 24005KT 9999 FEW020 BECMG 1609/1615 15010KT FEW025 BECMG 1618/1621 18005KT FEW022 BECMG 1700/1706 24005KT FEW019

4,000以上の空港の気象観測と天気予報(METAR報とTAF報)

利用可能な観測所は地図上に黄色い丸と赤い丸で示す。

丸の上にカーソルを重ねると観測所名を参照できる。

次にクリックすると気象観測と天気予報を参照できる。

マップの切り替え:黒色「×」印の緑ボタンをクリックして拡大、「-」印の緑ボタンをクリックして縮小、緑色の三角印をクリックして隣りの地図に切り替え


METAR-TAF: